sensor_id;sensor_type;location;lat;lon;timestamp;P1;durP1;ratioP1;P2;durP2;ratioP2
34072;SDS011;20346;52.702;16.886;2024-01-10T00:00:33;194.50;;;66.30;;
34072;SDS011;20346;52.702;16.886;2024-01-10T00:03:19;195.70;;;69.60;;
34072;SDS011;20346;52.702;16.886;2024-01-10T00:06:05;187.50;;;66.00;;
34072;SDS011;20346;52.702;16.886;2024-01-10T00:08:51;197.50;;;65.20;;
34072;SDS011;20346;52.702;16.886;2024-01-10T00:11:37;209.90;;;75.80;;
34072;SDS011;20346;52.702;16.886;2024-01-10T00:14:23;221.80;;;75.40;;
34072;SDS011;20346;52.702;16.886;2024-01-10T00:17:09;225.90;;;74.10;;
34072;SDS011;20346;52.702;16.886;2024-01-10T00:19:55;223.10;;;71.60;;
34072;SDS011;20346;52.702;16.886;2024-01-10T00:22:41;234.40;;;77.10;;
34072;SDS011;20346;52.702;16.886;2024-01-10T00:25:27;229.20;;;78.00;;
34072;SDS011;20346;52.702;16.886;2024-01-10T00:28:13;207.60;;;72.40;;
34072;SDS011;20346;52.702;16.886;2024-01-10T00:31:11;199.20;;;72.50;;
34072;SDS011;20346;52.702;16.886;2024-01-10T00:34:21;198.60;;;70.40;;
34072;SDS011;20346;52.702;16.886;2024-01-10T00:37:07;200.80;;;72.00;;
34072;SDS011;20346;52.702;16.886;2024-01-10T00:39:53;201.80;;;74.50;;
34072;SDS011;20346;52.702;16.886;2024-01-10T00:42:39;209.40;;;71.60;;
34072;SDS011;20346;52.702;16.886;2024-01-10T00:45:25;196.90;;;70.20;;
34072;SDS011;20346;52.702;16.886;2024-01-10T00:48:11;220.80;;;74.80;;
34072;SDS011;20346;52.702;16.886;2024-01-10T00:51:00;202.30;;;75.10;;
34072;SDS011;20346;52.702;16.886;2024-01-10T00:57:12;198.00;;;68.50;;
34072;SDS011;20346;52.702;16.886;2024-01-10T01:00:00;207.10;;;70.30;;
34072;SDS011;20346;52.702;16.886;2024-01-10T01:02:45;203.80;;;72.70;;
34072;SDS011;20346;52.702;16.886;2024-01-10T01:05:44;219.60;;;72.80;;
34072;SDS011;20346;52.702;16.886;2024-01-10T01:08:48;198.10;;;67.10;;
34072;SDS011;20346;52.702;16.886;2024-01-10T01:15:28;209.40;;;74.90;;
34072;SDS011;20346;52.702;16.886;2024-01-10T01:18:14;218.20;;;73.10;;
34072;SDS011;20346;52.702;16.886;2024-01-10T01:21:00;202.00;;;69.90;;
34072;SDS011;20346;52.702;16.886;2024-01-10T01:23:47;199.20;;;70.60;;
34072;SDS011;20346;52.702;16.886;2024-01-10T01:26:33;182.00;;;64.00;;
34072;SDS011;20346;52.702;16.886;2024-01-10T01:29:20;208.10;;;79.10;;
34072;SDS011;20346;52.702;16.886;2024-01-10T01:32:09;210.70;;;73.80;;
34072;SDS011;20346;52.702;16.886;2024-01-10T01:38:13;221.20;;;79.00;;
34072;SDS011;20346;52.702;16.886;2024-01-10T01:40:59;217.70;;;76.40;;
34072;SDS011;20346;52.702;16.886;2024-01-10T01:43:45;190.30;;;72.10;;
34072;SDS011;20346;52.702;16.886;2024-01-10T01:46:31;229.10;;;77.30;;
34072;SDS011;20346;52.702;16.886;2024-01-10T01:49:18;194.00;;;71.70;;
34072;SDS011;20346;52.702;16.886;2024-01-10T01:52:04;197.90;;;66.30;;
34072;SDS011;20346;52.702;16.886;2024-01-10T01:54:51;200.80;;;72.00;;
34072;SDS011;20346;52.702;16.886;2024-01-10T01:57:37;257.70;;;83.40;;
34072;SDS011;20346;52.702;16.886;2024-01-10T02:00:23;231.60;;;77.80;;
34072;SDS011;20346;52.702;16.886;2024-01-10T02:03:10;226.40;;;78.40;;
34072;SDS011;20346;52.702;16.886;2024-01-10T02:05:56;234.00;;;77.70;;
34072;SDS011;20346;52.702;16.886;2024-01-10T02:08:42;236.20;;;76.20;;
34072;SDS011;20346;52.702;16.886;2024-01-10T02:11:28;230.70;;;77.20;;
34072;SDS011;20346;52.702;16.886;2024-01-10T02:14:15;195.00;;;69.50;;
34072;SDS011;20346;52.702;16.886;2024-01-10T02:17:02;223.90;;;74.80;;
34072;SDS011;20346;52.702;16.886;2024-01-10T02:19:48;218.60;;;74.80;;
34072;SDS011;20346;52.702;16.886;2024-01-10T02:22:34;214.60;;;72.70;;
34072;SDS011;20346;52.702;16.886;2024-01-10T02:25:20;205.40;;;71.40;;
34072;SDS011;20346;52.702;16.886;2024-01-10T02:28:07;204.40;;;73.40;;
34072;SDS011;20346;52.702;16.886;2024-01-10T02:30:54;206.10;;;72.00;;
34072;SDS011;20346;52.702;16.886;2024-01-10T02:33:41;219.60;;;75.10;;
34072;SDS011;20346;52.702;16.886;2024-01-10T02:36:27;228.10;;;78.40;;
34072;SDS011;20346;52.702;16.886;2024-01-10T02:42:11;232.20;;;78.70;;
34072;SDS011;20346;52.702;16.886;2024-01-10T02:44:57;229.00;;;76.40;;
34072;SDS011;20346;52.702;16.886;2024-01-10T02:47:44;228.10;;;76.80;;
34072;SDS011;20346;52.702;16.886;2024-01-10T02:50:30;207.10;;;69.90;;
34072;SDS011;20346;52.702;16.886;2024-01-10T02:53:16;213.00;;;72.30;;
34072;SDS011;20346;52.702;16.886;2024-01-10T02:56:02;228.10;;;75.70;;
34072;SDS011;20346;52.702;16.886;2024-01-10T03:01:35;246.10;;;84.10;;
34072;SDS011;20346;52.702;16.886;2024-01-10T03:04:21;207.80;;;73.70;;
34072;SDS011;20346;52.702;16.886;2024-01-10T03:07:07;209.60;;;72.00;;
34072;SDS011;20346;52.702;16.886;2024-01-10T03:09:53;226.70;;;78.50;;
34072;SDS011;20346;52.702;16.886;2024-01-10T03:12:39;210.90;;;72.90;;
34072;SDS011;20346;52.702;16.886;2024-01-10T03:15:26;198.20;;;67.00;;
34072;SDS011;20346;52.702;16.886;2024-01-10T03:18:12;208.80;;;75.50;;
34072;SDS011;20346;52.702;16.886;2024-01-10T03:20:58;209.60;;;70.90;;
34072;SDS011;20346;52.702;16.886;2024-01-10T03:23:44;218.20;;;75.00;;
34072;SDS011;20346;52.702;16.886;2024-01-10T03:26:30;206.20;;;72.20;;
34072;SDS011;20346;52.702;16.886;2024-01-10T03:29:16;206.50;;;70.00;;
34072;SDS011;20346;52.702;16.886;2024-01-10T03:32:02;214.70;;;72.50;;
34072;SDS011;20346;52.702;16.886;2024-01-10T03:34:48;201.40;;;70.30;;
34072;SDS011;20346;52.702;16.886;2024-01-10T03:37:37;211.90;;;73.70;;
34072;SDS011;20346;52.702;16.886;2024-01-10T03:40:22;213.10;;;75.40;;
34072;SDS011;20346;52.702;16.886;2024-01-10T03:43:08;221.00;;;78.70;;
34072;SDS011;20346;52.702;16.886;2024-01-10T03:45:55;222.50;;;77.00;;
34072;SDS011;20346;52.702;16.886;2024-01-10T03:48:41;233.70;;;78.70;;
34072;SDS011;20346;52.702;16.886;2024-01-10T03:51:33;224.10;;;74.00;;
34072;SDS011;20346;52.702;16.886;2024-01-10T03:54:19;239.80;;;85.10;;
34072;SDS011;20346;52.702;16.886;2024-01-10T03:57:05;268.80;;;89.30;;
34072;SDS011;20346;52.702;16.886;2024-01-10T03:59:51;273.60;;;90.90;;
34072;SDS011;20346;52.702;16.886;2024-01-10T04:02:37;288.20;;;95.80;;
34072;SDS011;20346;52.702;16.886;2024-01-10T04:05:26;264.20;;;87.00;;
34072;SDS011;20346;52.702;16.886;2024-01-10T04:08:12;290.60;;;93.30;;
34072;SDS011;20346;52.702;16.886;2024-01-10T04:10:58;276.60;;;93.00;;
34072;SDS011;20346;52.702;16.886;2024-01-10T04:13:44;245.40;;;85.90;;
34072;SDS011;20346;52.702;16.886;2024-01-10T04:16:30;252.60;;;85.00;;
34072;SDS011;20346;52.702;16.886;2024-01-10T04:19:16;270.90;;;93.30;;
34072;SDS011;20346;52.702;16.886;2024-01-10T04:22:02;275.40;;;93.60;;
34072;SDS011;20346;52.702;16.886;2024-01-10T04:24:49;328.40;;;103.20;;
34072;SDS011;20346;52.702;16.886;2024-01-10T04:27:35;299.90;;;94.60;;
34072;SDS011;20346;52.702;16.886;2024-01-10T04:30:21;252.70;;;91.30;;
34072;SDS011;20346;52.702;16.886;2024-01-10T04:33:07;243.10;;;83.50;;
34072;SDS011;20346;52.702;16.886;2024-01-10T04:35:53;244.90;;;88.80;;
34072;SDS011;20346;52.702;16.886;2024-01-10T04:38:39;194.90;;;74.70;;
34072;SDS011;20346;52.702;16.886;2024-01-10T04:41:25;237.60;;;83.40;;
34072;SDS011;20346;52.702;16.886;2024-01-10T04:44:11;224.60;;;79.10;;
34072;SDS011;20346;52.702;16.886;2024-01-10T04:46:57;202.60;;;73.20;;
34072;SDS011;20346;52.702;16.886;2024-01-10T04:49:43;221.90;;;78.10;;
34072;SDS011;20346;52.702;16.886;2024-01-10T04:52:29;194.90;;;72.90;;
34072;SDS011;20346;52.702;16.886;2024-01-10T04:55:15;217.40;;;78.30;;
34072;SDS011;20346;52.702;16.886;2024-01-10T04:58:01;188.60;;;72.00;;
34072;SDS011;20346;52.702;16.886;2024-01-10T05:00:48;197.30;;;72.10;;
34072;SDS011;20346;52.702;16.886;2024-01-10T05:03:34;204.40;;;73.00;;
34072;SDS011;20346;52.702;16.886;2024-01-10T05:06:20;196.50;;;70.80;;
34072;SDS011;20346;52.702;16.886;2024-01-10T05:09:06;231.60;;;76.40;;
34072;SDS011;20346;52.702;16.886;2024-01-10T05:11:52;191.60;;;69.70;;
34072;SDS011;20346;52.702;16.886;2024-01-10T05:14:38;202.30;;;73.80;;
34072;SDS011;20346;52.702;16.886;2024-01-10T05:17:24;221.60;;;77.00;;
34072;SDS011;20346;52.702;16.886;2024-01-10T05:20:10;211.70;;;75.40;;
34072;SDS011;20346;52.702;16.886;2024-01-10T05:22:56;226.60;;;80.20;;
34072;SDS011;20346;52.702;16.886;2024-01-10T05:25:44;233.70;;;82.40;;
34072;SDS011;20346;52.702;16.886;2024-01-10T05:28:30;227.50;;;80.40;;
34072;SDS011;20346;52.702;16.886;2024-01-10T05:31:16;234.90;;;82.10;;
34072;SDS011;20346;52.702;16.886;2024-01-10T05:34:02;238.40;;;84.10;;
34072;SDS011;20346;52.702;16.886;2024-01-10T05:36:50;218.10;;;80.70;;
34072;SDS011;20346;52.702;16.886;2024-01-10T05:39:36;212.10;;;74.30;;
34072;SDS011;20346;52.702;16.886;2024-01-10T05:42:22;211.30;;;75.20;;
34072;SDS011;20346;52.702;16.886;2024-01-10T05:45:08;196.40;;;74.50;;
34072;SDS011;20346;52.702;16.886;2024-01-10T05:47:55;194.10;;;74.50;;
34072;SDS011;20346;52.702;16.886;2024-01-10T05:50:41;202.10;;;76.70;;
34072;SDS011;20346;52.702;16.886;2024-01-10T05:53:27;187.60;;;68.40;;
34072;SDS011;20346;52.702;16.886;2024-01-10T05:56:14;202.00;;;71.50;;
34072;SDS011;20346;52.702;16.886;2024-01-10T05:59:00;210.90;;;80.60;;
34072;SDS011;20346;52.702;16.886;2024-01-10T06:01:47;203.10;;;78.20;;
34072;SDS011;20346;52.702;16.886;2024-01-10T06:04:33;211.20;;;81.00;;
34072;SDS011;20346;52.702;16.886;2024-01-10T06:07:19;212.60;;;80.60;;
34072;SDS011;20346;52.702;16.886;2024-01-10T06:10:07;224.20;;;82.10;;
34072;SDS011;20346;52.702;16.886;2024-01-10T06:12:53;231.80;;;90.00;;
34072;SDS011;20346;52.702;16.886;2024-01-10T06:15:40;233.40;;;83.80;;
34072;SDS011;20346;52.702;16.886;2024-01-10T06:18:27;211.80;;;86.40;;
34072;SDS011;20346;52.702;16.886;2024-01-10T06:21:13;229.70;;;86.00;;
34072;SDS011;20346;52.702;16.886;2024-01-10T06:24:00;236.00;;;86.50;;
34072;SDS011;20346;52.702;16.886;2024-01-10T06:26:46;233.90;;;85.30;;
34072;SDS011;20346;52.702;16.886;2024-01-10T06:29:33;235.90;;;89.10;;
34072;SDS011;20346;52.702;16.886;2024-01-10T06:32:19;241.70;;;86.10;;
34072;SDS011;20346;52.702;16.886;2024-01-10T06:35:05;204.70;;;77.10;;
34072;SDS011;20346;52.702;16.886;2024-01-10T06:37:52;195.00;;;70.70;;
34072;SDS011;20346;52.702;16.886;2024-01-10T06:40:38;243.90;;;86.60;;
34072;SDS011;20346;52.702;16.886;2024-01-10T06:43:24;228.70;;;77.80;;
34072;SDS011;20346;52.702;16.886;2024-01-10T06:46:10;247.90;;;88.30;;
34072;SDS011;20346;52.702;16.886;2024-01-10T06:48:57;255.80;;;88.00;;
34072;SDS011;20346;52.702;16.886;2024-01-10T06:51:45;293.60;;;96.20;;
34072;SDS011;20346;52.702;16.886;2024-01-10T06:54:31;323.90;;;103.40;;
34072;SDS011;20346;52.702;16.886;2024-01-10T06:57:17;328.40;;;103.10;;
34072;SDS011;20346;52.702;16.886;2024-01-10T07:00:04;322.70;;;104.80;;
34072;SDS011;20346;52.702;16.886;2024-01-10T07:02:56;368.60;;;109.10;;
34072;SDS011;20346;52.702;16.886;2024-01-10T07:05:42;348.40;;;104.70;;
34072;SDS011;20346;52.702;16.886;2024-01-10T07:08:30;353.50;;;104.30;;
34072;SDS011;20346;52.702;16.886;2024-01-10T07:11:16;358.10;;;112.30;;
34072;SDS011;20346;52.702;16.886;2024-01-10T07:14:03;361.90;;;107.50;;
34072;SDS011;20346;52.702;16.886;2024-01-10T07:16:49;375.10;;;109.60;;
34072;SDS011;20346;52.702;16.886;2024-01-10T07:19:35;422.90;;;118.20;;
34072;SDS011;20346;52.702;16.886;2024-01-10T07:22:21;386.30;;;107.00;;
34072;SDS011;20346;52.702;16.886;2024-01-10T07:25:07;404.20;;;122.00;;
34072;SDS011;20346;52.702;16.886;2024-01-10T07:27:59;411.30;;;120.50;;
34072;SDS011;20346;52.702;16.886;2024-01-10T07:30:45;454.60;;;129.80;;
34072;SDS011;20346;52.702;16.886;2024-01-10T07:33:32;361.50;;;114.80;;
34072;SDS011;20346;52.702;16.886;2024-01-10T07:36:18;377.00;;;118.10;;
34072;SDS011;20346;52.702;16.886;2024-01-10T07:39:04;394.70;;;116.90;;
34072;SDS011;20346;52.702;16.886;2024-01-10T07:41:50;400.10;;;118.70;;
34072;SDS011;20346;52.702;16.886;2024-01-10T07:44:36;390.90;;;123.20;;
34072;SDS011;20346;52.702;16.886;2024-01-10T07:47:22;350.30;;;111.70;;
34072;SDS011;20346;52.702;16.886;2024-01-10T07:50:09;330.30;;;109.40;;
34072;SDS011;20346;52.702;16.886;2024-01-10T07:52:59;357.90;;;112.40;;
34072;SDS011;20346;52.702;16.886;2024-01-10T07:55:46;349.20;;;111.00;;
34072;SDS011;20346;52.702;16.886;2024-01-10T07:58:32;366.90;;;110.70;;
34072;SDS011;20346;52.702;16.886;2024-01-10T08:01:18;359.80;;;108.50;;
34072;SDS011;20346;52.702;16.886;2024-01-10T08:04:04;346.00;;;109.60;;
34072;SDS011;20346;52.702;16.886;2024-01-10T08:06:50;329.50;;;103.50;;
34072;SDS011;20346;52.702;16.886;2024-01-10T08:09:36;309.50;;;101.80;;
34072;SDS011;20346;52.702;16.886;2024-01-10T08:12:22;338.80;;;108.70;;
34072;SDS011;20346;52.702;16.886;2024-01-10T08:15:10;332.90;;;109.70;;
34072;SDS011;20346;52.702;16.886;2024-01-10T08:17:56;342.00;;;111.20;;
34072;SDS011;20346;52.702;16.886;2024-01-10T08:20:43;303.70;;;101.50;;
34072;SDS011;20346;52.702;16.886;2024-01-10T08:23:29;294.30;;;100.60;;
34072;SDS011;20346;52.702;16.886;2024-01-10T08:26:16;307.30;;;105.70;;
34072;SDS011;20346;52.702;16.886;2024-01-10T08:29:02;287.40;;;104.50;;
34072;SDS011;20346;52.702;16.886;2024-01-10T08:31:48;287.50;;;98.00;;
34072;SDS011;20346;52.702;16.886;2024-01-10T08:34:34;277.20;;;101.20;;
34072;SDS011;20346;52.702;16.886;2024-01-10T08:37:21;300.20;;;103.10;;
34072;SDS011;20346;52.702;16.886;2024-01-10T08:40:09;282.60;;;97.40;;
34072;SDS011;20346;52.702;16.886;2024-01-10T08:42:57;312.20;;;104.10;;
34072;SDS011;20346;52.702;16.886;2024-01-10T08:45:43;261.60;;;93.00;;
34072;SDS011;20346;52.702;16.886;2024-01-10T08:48:30;241.00;;;86.70;;
34072;SDS011;20346;52.702;16.886;2024-01-10T08:51:16;249.30;;;86.30;;
34072;SDS011;20346;52.702;16.886;2024-01-10T08:54:02;220.60;;;86.20;;
34072;SDS011;20346;52.702;16.886;2024-01-10T08:56:49;230.50;;;81.50;;
34072;SDS011;20346;52.702;16.886;2024-01-10T09:04:55;209.20;;;81.30;;
34072;SDS011;20346;52.702;16.886;2024-01-10T09:07:40;158.10;;;58.90;;
34072;SDS011;20346;52.702;16.886;2024-01-10T09:10:27;147.80;;;55.40;;
34072;SDS011;20346;52.702;16.886;2024-01-10T09:15:59;132.40;;;53.60;;
34072;SDS011;20346;52.702;16.886;2024-01-10T09:18:45;111.70;;;41.00;;
34072;SDS011;20346;52.702;16.886;2024-01-10T09:21:31;115.70;;;44.40;;
34072;SDS011;20346;52.702;16.886;2024-01-10T09:24:18;114.20;;;44.00;;
34072;SDS011;20346;52.702;16.886;2024-01-10T09:27:04;97.90;;;39.60;;
34072;SDS011;20346;52.702;16.886;2024-01-10T09:29:50;43.70;;;18.40;;
34072;SDS011;20346;52.702;16.886;2024-01-10T09:32:36;44.30;;;18.60;;
34072;SDS011;20346;52.702;16.886;2024-01-10T09:35:23;47.40;;;20.60;;
34072;SDS011;20346;52.702;16.886;2024-01-10T09:38:09;53.10;;;21.00;;
34072;SDS011;20346;52.702;16.886;2024-01-10T09:40:57;51.70;;;20.10;;
34072;SDS011;20346;52.702;16.886;2024-01-10T09:43:48;40.10;;;19.00;;
34072;SDS011;20346;52.702;16.886;2024-01-10T09:46:34;50.50;;;20.90;;
34072;SDS011;20346;52.702;16.886;2024-01-10T09:49:25;48.90;;;19.30;;
34072;SDS011;20346;52.702;16.886;2024-01-10T09:52:16;44.90;;;20.70;;
34072;SDS011;20346;52.702;16.886;2024-01-10T09:55:09;49.00;;;20.60;;
34072;SDS011;20346;52.702;16.886;2024-01-10T09:57:58;64.90;;;28.10;;
34072;SDS011;20346;52.702;16.886;2024-01-10T10:03:29;52.50;;;21.70;;
34072;SDS011;20346;52.702;16.886;2024-01-10T10:06:17;47.50;;;21.00;;
34072;SDS011;20346;52.702;16.886;2024-01-10T10:11:56;35.00;;;16.60;;
34072;SDS011;20346;52.702;16.886;2024-01-10T10:14:43;45.10;;;19.90;;
34072;SDS011;20346;52.702;16.886;2024-01-10T10:17:29;49.30;;;21.50;;
34072;SDS011;20346;52.702;16.886;2024-01-10T10:23:15;44.30;;;20.30;;
34072;SDS011;20346;52.702;16.886;2024-01-10T10:26:14;42.10;;;17.80;;
34072;SDS011;20346;52.702;16.886;2024-01-10T10:29:07;46.20;;;19.50;;
34072;SDS011;20346;52.702;16.886;2024-01-10T10:31:54;45.70;;;19.50;;
34072;SDS011;20346;52.702;16.886;2024-01-10T10:34:41;47.70;;;21.10;;
34072;SDS011;20346;52.702;16.886;2024-01-10T10:37:27;40.70;;;18.90;;
34072;SDS011;20346;52.702;16.886;2024-01-10T10:40:13;43.00;;;18.70;;
34072;SDS011;20346;52.702;16.886;2024-01-10T10:43:00;38.60;;;17.40;;
34072;SDS011;20346;52.702;16.886;2024-01-10T10:45:50;46.20;;;18.30;;
34072;SDS011;20346;52.702;16.886;2024-01-10T10:48:37;42.80;;;18.70;;
34072;SDS011;20346;52.702;16.886;2024-01-10T10:54:18;43.40;;;19.30;;
34072;SDS011;20346;52.702;16.886;2024-01-10T10:57:06;33.50;;;16.20;;
34072;SDS011;20346;52.702;16.886;2024-01-10T10:59:53;31.70;;;15.20;;
34072;SDS011;20346;52.702;16.886;2024-01-10T11:02:41;35.80;;;15.80;;
34072;SDS011;20346;52.702;16.886;2024-01-10T11:05:30;31.00;;;15.60;;
34072;SDS011;20346;52.702;16.886;2024-01-10T11:08:17;35.30;;;16.70;;
34072;SDS011;20346;52.702;16.886;2024-01-10T11:11:12;39.70;;;19.30;;
34072;SDS011;20346;52.702;16.886;2024-01-10T11:20:57;34.90;;;17.90;;
34072;SDS011;20346;52.702;16.886;2024-01-10T11:23:54;41.90;;;18.90;;
34072;SDS011;20346;52.702;16.886;2024-01-10T11:26:44;35.00;;;17.30;;
34072;SDS011;20346;52.702;16.886;2024-01-10T11:29:31;32.50;;;16.10;;
34072;SDS011;20346;52.702;16.886;2024-01-10T11:32:17;37.10;;;16.30;;
34072;SDS011;20346;52.702;16.886;2024-01-10T11:35:16;30.00;;;15.40;;
34072;SDS011;20346;52.702;16.886;2024-01-10T11:38:05;32.10;;;15.80;;
34072;SDS011;20346;52.702;16.886;2024-01-10T11:40:56;35.70;;;17.00;;
34072;SDS011;20346;52.702;16.886;2024-01-10T11:46:29;26.80;;;14.30;;
34072;SDS011;20346;52.702;16.886;2024-01-10T11:49:19;54.20;;;22.80;;
34072;SDS011;20346;52.702;16.886;2024-01-10T11:52:06;79.40;;;35.90;;
34072;SDS011;20346;52.702;16.886;2024-01-10T11:54:52;76.30;;;37.40;;
34072;SDS011;20346;52.702;16.886;2024-01-10T11:57:38;80.70;;;38.20;;
34072;SDS011;20346;52.702;16.886;2024-01-10T12:00:24;68.10;;;33.60;;
34072;SDS011;20346;52.702;16.886;2024-01-10T12:03:11;80.60;;;39.30;;
34072;SDS011;20346;52.702;16.886;2024-01-10T12:05:58;88.00;;;44.40;;
34072;SDS011;20346;52.702;16.886;2024-01-10T12:08:45;83.50;;;41.60;;
34072;SDS011;20346;52.702;16.886;2024-01-10T12:11:31;94.20;;;48.90;;
34072;SDS011;20346;52.702;16.886;2024-01-10T12:14:17;88.50;;;45.40;;
34072;SDS011;20346;52.702;16.886;2024-01-10T12:17:04;47.20;;;23.60;;
34072;SDS011;20346;52.702;16.886;2024-01-10T12:19:51;45.20;;;22.00;;
34072;SDS011;20346;52.702;16.886;2024-01-10T12:22:39;43.80;;;21.60;;
34072;SDS011;20346;52.702;16.886;2024-01-10T12:25:25;44.90;;;21.10;;
34072;SDS011;20346;52.702;16.886;2024-01-10T12:28:15;41.20;;;21.30;;
34072;SDS011;20346;52.702;16.886;2024-01-10T12:31:05;45.10;;;23.90;;
34072;SDS011;20346;52.702;16.886;2024-01-10T12:33:56;41.00;;;20.40;;
34072;SDS011;20346;52.702;16.886;2024-01-10T12:36:45;43.40;;;22.30;;
34072;SDS011;20346;52.702;16.886;2024-01-10T12:39:33;42.40;;;20.40;;
34072;SDS011;20346;52.702;16.886;2024-01-10T12:50:39;39.20;;;19.80;;
34072;SDS011;20346;52.702;16.886;2024-01-10T12:53:25;41.20;;;22.00;;
34072;SDS011;20346;52.702;16.886;2024-01-10T12:56:16;38.00;;;20.00;;
34072;SDS011;20346;52.702;16.886;2024-01-10T12:59:02;35.80;;;20.50;;
34072;SDS011;20346;52.702;16.886;2024-01-10T13:01:49;35.40;;;20.20;;
34072;SDS011;20346;52.702;16.886;2024-01-10T13:04:35;39.60;;;20.30;;
34072;SDS011;20346;52.702;16.886;2024-01-10T13:39:47;44.60;;;22.00;;
34072;SDS011;20346;52.702;16.886;2024-01-10T13:45:20;47.70;;;22.60;;
34072;SDS011;20346;52.702;16.886;2024-01-10T13:48:07;46.90;;;22.80;;
34072;SDS011;20346;52.702;16.886;2024-01-10T13:50:53;44.30;;;22.50;;
34072;SDS011;20346;52.702;16.886;2024-01-10T13:53:40;55.60;;;25.30;;
34072;SDS011;20346;52.702;16.886;2024-01-10T13:59:14;55.90;;;25.50;;
34072;SDS011;20346;52.702;16.886;2024-01-10T14:04:46;51.40;;;21.90;;
34072;SDS011;20346;52.702;16.886;2024-01-10T14:10:19;46.90;;;22.40;;
34072;SDS011;20346;52.702;16.886;2024-01-10T14:13:05;47.70;;;23.70;;
34072;SDS011;20346;52.702;16.886;2024-01-10T14:15:52;53.30;;;24.10;;
34072;SDS011;20346;52.702;16.886;2024-01-10T14:18:40;53.20;;;24.00;;
34072;SDS011;20346;52.702;16.886;2024-01-10T14:21:26;51.40;;;22.80;;
34072;SDS011;20346;52.702;16.886;2024-01-10T14:24:12;64.80;;;27.60;;
34072;SDS011;20346;52.702;16.886;2024-01-10T14:26:59;57.10;;;25.40;;
34072;SDS011;20346;52.702;16.886;2024-01-10T14:29:45;51.90;;;23.90;;
34072;SDS011;20346;52.702;16.886;2024-01-10T14:32:32;57.60;;;24.00;;
34072;SDS011;20346;52.702;16.886;2024-01-10T14:35:19;58.70;;;26.00;;
34072;SDS011;20346;52.702;16.886;2024-01-10T14:38:05;66.40;;;28.50;;
34072;SDS011;20346;52.702;16.886;2024-01-10T14:40:52;56.80;;;25.30;;
34072;SDS011;20346;52.702;16.886;2024-01-10T14:43:38;65.30;;;27.60;;
34072;SDS011;20346;52.702;16.886;2024-01-10T14:46:24;56.30;;;25.70;;
34072;SDS011;20346;52.702;16.886;2024-01-10T14:49:11;55.90;;;24.10;;
34072;SDS011;20346;52.702;16.886;2024-01-10T14:51:57;58.70;;;24.10;;
34072;SDS011;20346;52.702;16.886;2024-01-10T14:54:44;64.30;;;26.70;;
34072;SDS011;20346;52.702;16.886;2024-01-10T14:57:30;55.00;;;24.70;;
34072;SDS011;20346;52.702;16.886;2024-01-10T15:00:16;58.60;;;24.80;;
34072;SDS011;20346;52.702;16.886;2024-01-10T15:03:03;66.50;;;26.40;;
34072;SDS011;20346;52.702;16.886;2024-01-10T15:05:52;48.80;;;22.50;;
34072;SDS011;20346;52.702;16.886;2024-01-10T15:08:42;52.60;;;20.40;;
34072;SDS011;20346;52.702;16.886;2024-01-10T15:11:28;51.90;;;22.60;;
34072;SDS011;20346;52.702;16.886;2024-01-10T15:16:59;56.50;;;22.80;;
34072;SDS011;20346;52.702;16.886;2024-01-10T15:19:46;58.20;;;24.50;;
34072;SDS011;20346;52.702;16.886;2024-01-10T15:25:22;60.30;;;23.80;;
34072;SDS011;20346;52.702;16.886;2024-01-10T15:28:09;54.80;;;23.00;;
34072;SDS011;20346;52.702;16.886;2024-01-10T15:33:41;48.40;;;20.30;;
34072;SDS011;20346;52.702;16.886;2024-01-10T15:36:28;52.40;;;23.30;;
34072;SDS011;20346;52.702;16.886;2024-01-10T15:39:14;49.80;;;21.60;;
34072;SDS011;20346;52.702;16.886;2024-01-10T15:44:46;50.00;;;21.00;;
34072;SDS011;20346;52.702;16.886;2024-01-10T15:47:32;50.70;;;21.30;;
34072;SDS011;20346;52.702;16.886;2024-01-10T15:50:18;69.10;;;26.30;;
34072;SDS011;20346;52.702;16.886;2024-01-10T15:53:04;66.50;;;26.30;;
34072;SDS011;20346;52.702;16.886;2024-01-10T15:55:50;65.60;;;26.30;;
34072;SDS011;20346;52.702;16.886;2024-01-10T15:58:36;62.10;;;24.90;;
34072;SDS011;20346;52.702;16.886;2024-01-10T16:01:23;57.70;;;23.20;;
34072;SDS011;20346;52.702;16.886;2024-01-10T16:04:09;63.00;;;25.00;;
34072;SDS011;20346;52.702;16.886;2024-01-10T16:06:55;61.70;;;24.80;;
34072;SDS011;20346;52.702;16.886;2024-01-10T16:09:41;61.00;;;24.80;;
34072;SDS011;20346;52.702;16.886;2024-01-10T16:12:27;63.80;;;24.70;;
34072;SDS011;20346;52.702;16.886;2024-01-10T16:17:59;65.20;;;26.30;;
34072;SDS011;20346;52.702;16.886;2024-01-10T16:20:45;61.40;;;26.00;;
34072;SDS011;20346;52.702;16.886;2024-01-10T16:26:41;60.70;;;26.60;;
34072;SDS011;20346;52.702;16.886;2024-01-10T16:29:27;58.70;;;24.20;;
34072;SDS011;20346;52.702;16.886;2024-01-10T16:32:13;69.60;;;26.60;;
34072;SDS011;20346;52.702;16.886;2024-01-10T16:34:59;66.80;;;25.60;;
34072;SDS011;20346;52.702;16.886;2024-01-10T16:37:45;52.80;;;23.80;;
34072;SDS011;20346;52.702;16.886;2024-01-10T16:40:31;48.60;;;22.20;;
34072;SDS011;20346;52.702;16.886;2024-01-10T16:43:17;54.10;;;21.90;;
34072;SDS011;20346;52.702;16.886;2024-01-10T16:46:03;60.70;;;22.20;;
34072;SDS011;20346;52.702;16.886;2024-01-10T16:48:49;54.00;;;22.20;;
34072;SDS011;20346;52.702;16.886;2024-01-10T16:51:35;54.50;;;21.90;;
34072;SDS011;20346;52.702;16.886;2024-01-10T16:54:23;61.40;;;24.70;;
34072;SDS011;20346;52.702;16.886;2024-01-10T16:57:09;65.40;;;25.50;;
34072;SDS011;20346;52.702;16.886;2024-01-10T16:59:55;67.70;;;28.20;;
34072;SDS011;20346;52.702;16.886;2024-01-10T17:02:42;60.60;;;25.60;;
34072;SDS011;20346;52.702;16.886;2024-01-10T17:05:28;66.90;;;27.20;;
34072;SDS011;20346;52.702;16.886;2024-01-10T17:08:13;63.40;;;27.50;;
34072;SDS011;20346;52.702;16.886;2024-01-10T17:11:01;82.30;;;30.30;;
34072;SDS011;20346;52.702;16.886;2024-01-10T17:13:48;73.70;;;31.30;;
34072;SDS011;20346;52.702;16.886;2024-01-10T17:16:35;69.10;;;29.40;;
34072;SDS011;20346;52.702;16.886;2024-01-10T17:19:22;77.90;;;28.90;;
34072;SDS011;20346;52.702;16.886;2024-01-10T17:22:09;64.50;;;26.00;;
34072;SDS011;20346;52.702;16.886;2024-01-10T17:24:55;64.90;;;25.50;;
34072;SDS011;20346;52.702;16.886;2024-01-10T17:27:41;66.00;;;29.30;;
34072;SDS011;20346;52.702;16.886;2024-01-10T17:30:27;72.60;;;28.20;;
34072;SDS011;20346;52.702;16.886;2024-01-10T17:33:15;67.90;;;27.40;;
34072;SDS011;20346;52.702;16.886;2024-01-10T17:36:02;73.30;;;28.40;;
34072;SDS011;20346;52.702;16.886;2024-01-10T17:38:49;74.90;;;28.30;;
34072;SDS011;20346;52.702;16.886;2024-01-10T17:41:37;77.70;;;28.40;;
34072;SDS011;20346;52.702;16.886;2024-01-10T17:44:24;67.50;;;26.80;;
34072;SDS011;20346;52.702;16.886;2024-01-10T17:47:10;70.80;;;28.20;;